KHUM/HUM METAR and TAF weather

Enter ICAO airport designator
Station Type Date Time Source
KHUM METAR 2020/01/28 11:47 UTC NOAA

KHUM 281147Z 10007KT 7SM CLR 07/07 A3000


Station Type Date Time Source
KHUM Decoded METAR 2020/01/28 11:47 UTC NOAA

Houma-Terrebonne, LA, United States (KHUM) 29-34N 090-40W
Jan 28, 2020 - 06:47 AM EST / 2020.01.28 1147 UTC
Wind: from the E (100 degrees) at 8 MPH (7 KT):0
Visibility: 7 mile(s):0
Sky conditions: clear
Temperature: 44 F (7 C)
Dew Point: 44 F (7 C)
Relative Humidity: 100%
Pressure (altimeter): 30 in. Hg (1015 hPa)
ob: KHUM 281147Z 10007KT 7SM CLR 07/07 A3000
cycle: 12

Station Type Date Time Source
KHUM TAF 2020/01/28 12:22 UTC NOAA

TAF KHUM 281120Z 2812/2912 09004KT 5SM BR SKC
FM290500 13006KT P6SM VCSH BKN040
FM290700 13007KT P6SM -SHRA OVC025
FM291000 13007KT P6SM -SHRA BKN015
FM291100 23007KT P6SM -SHRA BKN008

Example: see airport list